Pelican State — WDE4433 — position and weather

sailwx.info

Track history (hours):
 
Tides and Currents Weather Stations Pressure Air Temp Water Temp Dewpoint Dewpoint Depression Visibility Wind Speed Wind Dir Waves Ship Positions

Pelican State

Owner: Crowley Petroleum Serives, Jacksonville, FL. More information available from US FCC via Universal Licensing System and Coast Guard Vessel Documentation Center.

Last reported at 2017-May-27 18:00 UTC. Time now 2017-May-28 16:23 UTC.
Position N 33°40' W 118°11'.

Length 183 m; draft 12 m.

Type: Tanker. MMSI: 367353110.

Date/timePositionNaut miles runAvg speedWind from/ knotsBaromVisibWave heightAir tempDewpointWater temp
2017-May-27 18:00N 33°40' W 118°11'4 8.0
2017-May-27 17:30N 33°38' W 118°15'3 6.4
2017-May-27 17:00N 33°36' W 118°18'3 5.1
2017-May-27 16:30N 33°36' W 118°21'2 4.6
2017-May-27 16:00N 33°36' W 118°24'2 4.5
2017-May-27 15:30N 33°37' W 118°27'2 4.5
2017-May-27 15:00N 33°37' W 118°30'2 4.6
2017-May-27 14:30N 33°37' W 118°32'5 4.7
2017-May-27 13:30N 33°37' W 118°38'3 5.1
2017-May-27 13:00N 33°38' W 118°41'5 9.6
2017-May-27 12:30N 33°38' W 118°47'510.9
2017-May-27 12:00N 33°38' W 118°53'510.7
2017-May-27 11:30N 33°38' W 118°60'510.4
2017-May-27 11:00N 33°38' W 119°06'510.5
2017-May-27 10:30N 33°38' W 119°12'510.9
2017-May-27 10:00N 33°38' W 119°19'510.6
2017-May-27 09:30N 33°38' W 119°25'510.4
2017-May-27 09:00N 33°38' W 119°32'510.4
2017-May-27 08:31N 33°38' W 119°38'510.0
2017-May-27 08:00N 33°38' W 119°44'510.1
2017-May-27 07:30N 33°38' W 119°50'510.0
2017-May-27 07:00N 33°38' W 119°56'5 9.8
2017-May-27 06:28N 33°38' W 120°02'510.5
2017-May-27 05:57N 33°38' W 120°09'510.5
2017-May-27 05:30N 33°38' W 120°14'510.7
2017-May-27 04:59N 33°38' W 120°21'611.2
2017-May-27 04:28N 33°38' W 120°28'3 7.7
2017-May-27 04:00N 33°38' W 120°32'4 9.0
2017-May-27 03:30N 33°38' W 120°38'510.8
2017-May-27 03:00N 33°38' W 120°44'510.1
2017-May-27 02:30N 33°39' W 120°50'611.4
2017-May-27 02:00N 33°43' W 120°55'611.4
2017-May-27 01:30N 33°46' W 121°01'611.3
2017-May-27 01:00N 33°50' W 121°06'611.1
2017-May-27 00:30N 33°53' W 121°11'610.9
2017-May-27 00:00N 33°56' W 121°17'611.2
2017-May-26 23:30N 33°59' W 121°22'611.5
2017-May-26 23:00N 34°03' W 121°28'611.5
2017-May-26 22:30N 34°06' W 121°33'611.4
2017-May-26 22:00N 34°10' W 121°39'611.3
2017-May-26 21:30N 34°13' W 121°44'611.8
2017-May-26 21:00N 34°17' W 121°50'811.9
2017-May-26 20:20N 34°22' W 121°57'411.8
2017-May-26 20:00N 34°24' W 122°01'712.2
2017-May-26 19:27N 34°28' W 122°08'612.1
2017-May-26 18:58N 34°32' W 122°14'711.3
2017-May-26 18:22N 34°35' W 122°20'711.1
2017-May-26 17:42N 34°40' W 122°28'611.1
2017-May-26 17:10N 34°43' W 122°33'311.1
2017-May-26 16:51N 34°46' W 122°37'411.1
2017-May-26 16:27N 34°48' W 122°41'611.1
2017-May-26 15:57N 34°52' W 122°47'5511.2
2017-May-26 11:03N 35°39' W 123°21'12211.7
2017-May-26 00:36N 37°31' W 124°21'111.7
2017-May-26 00:30N 37°32' W 124°22'42311.3
2017-May-24 11:01N 44°30' W 125°45'012.8
2017-May-24 10:59N 44°30' W 125°45'612.8
2017-May-24 10:29N 44°37' W 125°46'612.6
2017-May-24 10:00N 44°43' W 125°45'612.9
2017-May-24 09:30N 44°49' W 125°45'612.9
2017-May-24 09:00N 44°56' W 125°45'612.9
2017-May-24 08:30N 45°02' W 125°45'712.7
2017-May-24 07:58N 45°09' W 125°45'612.6
2017-May-24 07:30N 45°15' W 125°45'612.4
2017-May-24 07:00N 45°21' W 125°45'612.5
2017-May-24 06:30N 45°27' W 125°45'612.0
2017-May-24 05:59N 45°33' W 125°44'912.1
2017-May-24 05:14N 45°39' W 125°34'612.4
2017-May-24 04:43N 45°43' W 125°27'312.5
2017-May-24 04:30N 45°45' W 125°24'612.8
2017-May-24 04:00N 45°48' W 125°16'713.0
2017-May-24 03:30N 45°51' W 125°08'713.4
2017-May-24 03:00N 45°54' W 124°59'612.9
2017-May-24 02:30N 45°56' W 124°51'713.0
2017-May-24 02:00N 45°59' W 124°42'613.2
2017-May-24 01:30N 46°02' W 124°33'612.4
2017-May-24 01:00N 46°04' W 124°25'612.6
2017-May-24 00:30N 46°07' W 124°17'612.1
2017-May-24 00:00N 46°11' W 124°10'510.2
2017-May-23 23:30N 46°15' W 124°06'612.1
2017-May-23 23:00N 46°13' W 123°57'611.3
2017-May-23 22:31N 46°12' W 123°49'612.0
2017-May-23 22:01N 46°15' W 123°42'612.9
2017-May-23 21:30N 46°16' W 123°33'510.2
2017-May-23 21:00N 46°14' W 123°26'510.3
2017-May-23 20:31N 46°09' W 123°23'612.2
2017-May-23 20:00N 46°10' W 123°14'611.1
2017-May-23 19:30N 46°11' W 123°07'713.3
2017-May-23 19:00N 46°07' W 122°59'510.8
2017-May-23 18:30N 46°03' W 122°53'5 9.9
2017-May-23 18:00N 45°59' W 122°50'612.6
2017-May-23 17:30N 45°53' W 122°48'713.2
2017-May-23 17:01N 45°46' W 122°46'713.1
2017-May-23 16:30N 45°40' W 122°46'3 6.4
2017-May-23 16:00N 45°36' W 122°47'3 6.3
2017-May-23 15:30N 45°34' W 122°44'0 0.3
2017-May-23 14:58N 45°34' W 122°44'0 0.0
2017-May-23 14:28N 45°34' W 122°44'0 0.0
2017-May-23 13:28N 45°34' W 122°44'0 0.0
2017-May-23 12:58N 45°34' W 122°44'0 0.0
2017-May-23 12:25N 45°34' W 122°44'0 0.0
2017-May-23 11:58N 45°34' W 122°44'0 0.0
2017-May-23 11:28N 45°34' W 122°44'0 0.0
2017-May-23 10:58N 45°34' W 122°44'0 0.0
2017-May-23 10:28N 45°34' W 122°44'0 0.0
2017-May-23 09:55N 45°34' W 122°44'0 0.0
2017-May-23 09:28N 45°34' W 122°44'0 0.0
2017-May-23 08:58N 45°34' W 122°44'0 0.0
2017-May-23 08:28N 45°34' W 122°44'0 0.0
2017-May-23 07:40N 45°34' W 122°44'0 0.0
2017-May-23 07:28N 45°34' W 122°44'0 0.0
2017-May-23 06:58N 45°34' W 122°44'0 0.0
2017-May-23 06:28N 45°34' W 122°44'0 0.0
2017-May-23 05:58N 45°34' W 122°44'0 0.0
2017-May-23 05:28N 45°34' W 122°44'0 0.0
2017-May-23 04:58N 45°34' W 122°44'0 0.0
2017-May-23 04:25N 45°34' W 122°44'0 0.0
2017-May-23 03:55N 45°34' W 122°44'0 0.0
2017-May-23 03:22N 45°34' W 122°44'0 0.0
2017-May-23 02:58N 45°34' W 122°44'0 0.0
2017-May-23 01:19N 45°34' W 122°44'0 0.0
2017-May-23 00:55N 45°34' W 122°44'0 0.0
2017-May-23 00:28N 45°34' W 122°44'0 0.0
2017-May-22 23:46N 45°34' W 122°44'0 0.0
2017-May-22 23:28N 45°34' W 122°44'0 0.0
2017-May-22 22:52N 45°34' W 122°44'0 0.0
2017-May-22 22:28N 45°34' W 122°44'0 0.0
2017-May-22 21:58N 45°34' W 122°44'0 0.0
2017-May-22 21:28N 45°34' W 122°44'0 0.0
2017-May-22 20:58N 45°34' W 122°44'0 0.0
2017-May-22 20:25N 45°34' W 122°44'0 0.0
2017-May-22 19:55N 45°34' W 122°44'0 0.0
2017-May-22 19:22N 45°34' W 122°44'0 0.0
2017-May-22 18:58N 45°34' W 122°44'0 0.0
2017-May-22 18:28N 45°34' W 122°44'0 0.0
2017-May-22 17:58N 45°34' W 122°44'0 0.0
2017-May-22 17:30N 45°34' W 122°44'0 0.0
2017-May-22 17:00N 45°34' W 122°44'0 0.0
2017-May-22 16:30N 45°34' W 122°44'0 0.0
2017-May-22 16:00N 45°34' W 122°44'0 0.0
2017-May-22 15:30N 45°34' W 122°44'0 0.0
2017-May-22 15:00N 45°34' W 122°44'0 0.0
2017-May-22 14:00N 45°34' W 122°44'0 0.0
2017-May-22 13:30N 45°34' W 122°44'0 0.0
2017-May-22 13:00N 45°34' W 122°44'0 0.9
2017-May-22 12:30N 45°34' W 122°45'3 5.6
2017-May-22 12:00N 45°37' W 122°47'3 6.5
2017-May-22 11:30N 45°40' W 122°46'4 8.4
2017-May-22 11:00N 45°44' W 122°46'5 9.1
2017-May-22 10:30N 45°48' W 122°48'4 8.6
2017-May-22 10:00N 45°53' W 122°48'5 9.0
2017-May-22 09:31N 45°57' W 122°48'4 8.5
2017-May-22 09:01N 46°01' W 122°51'4 7.3
2017-May-22 08:31N 46°04' W 122°53'3 6.8
2017-May-22 08:00N 46°06' W 122°57'4 7.5
2017-May-22 07:30N 46°08' W 123°02'5 9.3
2017-May-22 07:00N 46°11' W 123°07'5 9.6
2017-May-22 06:31N 46°10' W 123°14'5 9.9
2017-May-22 06:00N 46°09' W 123°21'4 8.7
2017-May-22 05:31N 46°11' W 123°26'510.1
2017-May-22 05:01N 46°16' W 123°28'611.2
2017-May-22 04:30N 46°15' W 123°36'611.2
2017-May-22 04:00N 46°14' W 123°44'510.9
2017-May-22 03:30N 46°12' W 123°51'4 7.7
2017-May-22 03:00N 46°12' W 123°56'612.0
2017-May-22 02:30N 46°15' W 124°04'611.1
2017-May-22 02:00N 46°12' W 124°10'510.9
2017-May-22 01:30N 46°10' W 124°18'611.6
2017-May-22 01:00N 46°11' W 124°26'611.2
2017-May-22 00:30N 46°13' W 124°33'612.8
2017-May-22 00:00N 46°18' W 124°39'510.4
2017-May-21 23:31N 46°22' W 124°44'4 7.1
2017-May-21 23:00N 46°25' W 124°48'713.3
2017-May-21 22:30N 46°29' W 124°55'714.4
2017-May-21 22:00N 46°35' W 125°02'714.5
2017-May-21 21:30N 46°40' W 125°09'714.2
2017-May-21 20:59N 46°45' W 125°17'714.1
2017-May-21 20:29N 46°50' W 125°24'713.8
2017-May-21 20:00N 46°55' W 125°31'713.1
2017-May-21 19:31N 47°01' W 125°32'714.0
2017-May-21 19:00N 47°08' W 125°32'714.2
2017-May-21 18:31N 47°16' W 125°32'714.4
2017-May-21 18:01N 47°23' W 125°32'714.1
2017-May-21 17:30N 47°30' W 125°32'714.0
2017-May-21 17:00N 47°37' W 125°32'713.8
2017-May-21 16:30N 47°44' W 125°32'714.0
2017-May-21 16:01N 47°51' W 125°32'1414.0
2017-May-21 15:02N 48°03' W 125°24'0 2.3
2017-May-21 14:58N 48°03' W 125°24'1013.7
2017-May-21 14:15N 48°12' W 125°17'1114.4
2017-May-21 13:30N 48°22' W 125°10'713.9
2017-May-21 13:00N 48°28' W 125°04'712.5
2017-May-21 12:28N 48°31' W 124°55'714.7
2017-May-21 12:01N 48°31' W 124°45'814.9
2017-May-21 11:30N 48°28' W 124°34'714.8
2017-May-21 11:00N 48°25' W 124°24'714.7
2017-May-21 10:30N 48°22' W 124°14'714.3
2017-May-21 10:00N 48°20' W 124°04'714.1
2017-May-21 09:30N 48°17' W 123°54'714.0
2017-May-21 09:00N 48°16' W 123°43'713.2
2017-May-21 08:30N 48°15' W 123°34'611.6
2017-May-21 08:00N 48°13' W 123°26'5 9.7
2017-May-21 07:30N 48°09' W 123°22'5 9.5
2017-May-21 07:00N 48°10' W 123°15'611.8
2017-May-21 06:30N 48°14' W 123°10'510.9
2017-May-21 06:00N 48°18' W 123°03'611.3
2017-May-21 05:30N 48°21' W 122°56'611.5
2017-May-21 05:00N 48°24' W 122°49'5 9.7
2017-May-21 04:30N 48°28' W 122°45'510.3
2017-May-21 04:00N 48°33' W 122°45'510.3
2017-May-21 03:30N 48°38' W 122°44'610.9
2017-May-21 03:00N 48°44' W 122°45'611.8
2017-May-21 02:30N 48°50' W 122°46'2 0.1
2017-May-19 12:35N 48°52' W 122°46'0 0.0
2017-May-19 12:14N 48°52' W 122°46'0 0.0
2017-May-18 21:41N 48°52' W 122°46'1 3.0
2017-May-18 21:30N 48°51' W 122°45'3 5.5
2017-May-18 21:00N 48°48' W 122°46'5 9.3
2017-May-18 20:30N 48°44' W 122°45'611.8
2017-May-18 20:00N 48°38' W 122°44'612.0
2017-May-18 19:31N 48°32' W 122°45'612.5
2017-May-18 19:01N 48°26' W 122°46'713.6
2017-May-18 18:30N 48°21' W 122°54'714.2
2017-May-18 18:00N 48°18' W 123°03'713.6
2017-May-18 17:30N 48°14' W 123°12'713.3
2017-May-18 17:00N 48°11' W 123°20'4 7.8
2017-May-18 16:30N 48°11' W 123°26'4 8.0
2017-May-18 16:01N 48°12' W 123°31'4 7.7
2017-May-18 15:30N 48°13' W 123°37'5 9.6
2017-May-18 15:00N 48°13' W 123°44'1312.9
2017-May-18 14:00N 48°16' W 124°03'713.2
2017-May-18 13:30N 48°18' W 124°12'713.1
2017-May-18 13:00N 48°21' W 124°21'612.8
2017-May-18 12:30N 48°24' W 124°30'612.6
2017-May-18 12:00N 48°27' W 124°39'612.7
2017-May-18 11:30N 48°28' W 124°48'713.4
2017-May-18 11:00N 48°29' W 124°58'612.8
2017-May-18 10:30N 48°24' W 125°04'713.7
2017-May-18 10:00N 48°18' W 125°09'713.8
2017-May-18 09:30N 48°12' W 125°14'814.0
2017-May-18 08:56N 48°05' W 125°20'7213.3
2017-May-18 03:32N 46°55' W 125°46'413.9
2017-May-18 03:13N 46°51' W 125°46'413.7
2017-May-18 02:57N 46°47' W 125°46'2912.0
2017-May-18 00:34N 46°18' W 125°45'114.5
2017-May-18 00:30N 46°18' W 125°45'1720.8
2017-May-17 23:43N 46°01' W 125°45'0 1.2
2017-May-17 23:21N 46°01' W 125°45'514.5
2017-May-17 23:00N 45°56' W 125°45'814.4
2017-May-17 22:28N 45°48' W 125°45'814.2
2017-May-17 21:55N 45°40' W 125°45'714.2
2017-May-17 21:28N 45°34' W 125°45'614.1
2017-May-17 21:00N 45°27' W 125°45'814.2
2017-May-17 20:28N 45°20' W 125°45'1114.0
2017-May-17 19:43N 45°09' W 125°45'1013.7
2017-May-17 19:01N 44°59' W 125°45'013.9
2017-May-17 19:00N 44°59' W 125°45'713.7
2017-May-17 18:30N 44°52' W 125°45'  
Track history (hours):
 
Tides and Currents Weather Stations Pressure Air Temp Water Temp Dewpoint Dewpoint Depression Visibility Wind Speed Wind Dir Waves Ship Positions

Pelican State

Owner: Crowley Petroleum Serives, Jacksonville, FL. More information available from US FCC via Universal Licensing System and Coast Guard Vessel Documentation Center.

Last reported at 2017-May-27 18:00 UTC. Time now 2017-May-28 16:23 UTC.
Position N 33°40' W 118°11'.

Length 183 m; draft 12 m.

Type: Tanker. MMSI: 367353110.

Date/timePositionNaut miles runAvg speedWind from/ knotsBaromVisibWave heightAir tempDewpointWater temp
2017-May-27 18:00N 33°40' W 118°11'4 8.0
2017-May-27 17:30N 33°38' W 118°15'3 6.4
2017-May-27 17:00N 33°36' W 118°18'3 5.1
2017-May-27 16:30N 33°36' W 118°21'2 4.6
2017-May-27 16:00N 33°36' W 118°24'2 4.5
2017-May-27 15:30N 33°37' W 118°27'2 4.5
2017-May-27 15:00N 33°37' W 118°30'2 4.6
2017-May-27 14:30N 33°37' W 118°32'5 4.7
2017-May-27 13:30N 33°37' W 118°38'3 5.1
2017-May-27 13:00N 33°38' W 118°41'5 9.6
2017-May-27 12:30N 33°38' W 118°47'510.9
2017-May-27 12:00N 33°38' W 118°53'510.7
2017-May-27 11:30N 33°38' W 118°60'510.4
2017-May-27 11:00N 33°38' W 119°06'510.5
2017-May-27 10:30N 33°38' W 119°12'510.9
2017-May-27 10:00N 33°38' W 119°19'510.6
2017-May-27 09:30N 33°38' W 119°25'510.4
2017-May-27 09:00N 33°38' W 119°32'510.4
2017-May-27 08:31N 33°38' W 119°38'510.0
2017-May-27 08:00N 33°38' W 119°44'510.1
2017-May-27 07:30N 33°38' W 119°50'510.0
2017-May-27 07:00N 33°38' W 119°56'5 9.8
2017-May-27 06:28N 33°38' W 120°02'510.5
2017-May-27 05:57N 33°38' W 120°09'510.5
2017-May-27 05:30N 33°38' W 120°14'510.7
2017-May-27 04:59N 33°38' W 120°21'611.2
2017-May-27 04:28N 33°38' W 120°28'3 7.7
2017-May-27 04:00N 33°38' W 120°32'4 9.0
2017-May-27 03:30N 33°38' W 120°38'510.8
2017-May-27 03:00N 33°38' W 120°44'510.1
2017-May-27 02:30N 33°39' W 120°50'611.4
2017-May-27 02:00N 33°43' W 120°55'611.4
2017-May-27 01:30N 33°46' W 121°01'611.3
2017-May-27 01:00N 33°50' W 121°06'611.1
2017-May-27 00:30N 33°53' W 121°11'610.9
2017-May-27 00:00N 33°56' W 121°17'611.2
2017-May-26 23:30N 33°59' W 121°22'611.5
2017-May-26 23:00N 34°03' W 121°28'611.5
2017-May-26 22:30N 34°06' W 121°33'611.4
2017-May-26 22:00N 34°10' W 121°39'611.3
2017-May-26 21:30N 34°13' W 121°44'611.8
2017-May-26 21:00N 34°17' W 121°50'811.9
2017-May-26 20:20N 34°22' W 121°57'411.8
2017-May-26 20:00N 34°24' W 122°01'712.2
2017-May-26 19:27N 34°28' W 122°08'612.1
2017-May-26 18:58N 34°32' W 122°14'711.3
2017-May-26 18:22N 34°35' W 122°20'711.1
2017-May-26 17:42N 34°40' W 122°28'611.1
2017-May-26 17:10N 34°43' W 122°33'311.1
2017-May-26 16:51N 34°46' W 122°37'411.1
2017-May-26 16:27N 34°48' W 122°41'611.1
2017-May-26 15:57N 34°52' W 122°47'5511.2
2017-May-26 11:03N 35°39' W 123°21'12211.7
2017-May-26 00:36N 37°31' W 124°21'111.7
2017-May-26 00:30N 37°32' W 124°22'42311.3
2017-May-24 11:01N 44°30' W 125°45'012.8
2017-May-24 10:59N 44°30' W 125°45'612.8
2017-May-24 10:29N 44°37' W 125°46'612.6
2017-May-24 10:00N 44°43' W 125°45'612.9
2017-May-24 09:30N 44°49' W 125°45'612.9
2017-May-24 09:00N 44°56' W 125°45'612.9
2017-May-24 08:30N 45°02' W 125°45'712.7
2017-May-24 07:58N 45°09' W 125°45'612.6
2017-May-24 07:30N 45°15' W 125°45'612.4
2017-May-24 07:00N 45°21' W 125°45'612.5
2017-May-24 06:30N 45°27' W 125°45'612.0
2017-May-24 05:59N 45°33' W 125°44'912.1
2017-May-24 05:14N 45°39' W 125°34'612.4
2017-May-24 04:43N 45°43' W 125°27'312.5
2017-May-24 04:30N 45°45' W 125°24'612.8
2017-May-24 04:00N 45°48' W 125°16'713.0
2017-May-24 03:30N 45°51' W 125°08'713.4
2017-May-24 03:00N 45°54' W 124°59'612.9
2017-May-24 02:30N 45°56' W 124°51'713.0
2017-May-24 02:00N 45°59' W 124°42'613.2
2017-May-24 01:30N 46°02' W 124°33'612.4
2017-May-24 01:00N 46°04' W 124°25'612.6
2017-May-24 00:30N 46°07' W 124°17'612.1
2017-May-24 00:00N 46°11' W 124°10'510.2
2017-May-23 23:30N 46°15' W 124°06'612.1
2017-May-23 23:00N 46°13' W 123°57'611.3
2017-May-23 22:31N 46°12' W 123°49'612.0
2017-May-23 22:01N 46°15' W 123°42'612.9
2017-May-23 21:30N 46°16' W 123°33'510.2
2017-May-23 21:00N 46°14' W 123°26'510.3
2017-May-23 20:31N 46°09' W 123°23'612.2
2017-May-23 20:00N 46°10' W 123°14'611.1
2017-May-23 19:30N 46°11' W 123°07'713.3
2017-May-23 19:00N 46°07' W 122°59'510.8
2017-May-23 18:30N 46°03' W 122°53'5 9.9
2017-May-23 18:00N 45°59' W 122°50'612.6
2017-May-23 17:30N 45°53' W 122°48'713.2
2017-May-23 17:01N 45°46' W 122°46'713.1
2017-May-23 16:30N 45°40' W 122°46'3 6.4
2017-May-23 16:00N 45°36' W 122°47'3 6.3
2017-May-23 15:30N 45°34' W 122°44'0 0.3
2017-May-23 14:58N 45°34' W 122°44'0 0.0
2017-May-23 14:28N 45°34' W 122°44'0 0.0
2017-May-23 13:28N 45°34' W 122°44'0 0.0
2017-May-23 12:58N 45°34' W 122°44'0 0.0
2017-May-23 12:25N 45°34' W 122°44'0 0.0
2017-May-23 11:58N 45°34' W 122°44'0 0.0
2017-May-23 11:28N 45°34' W 122°44'0 0.0
2017-May-23 10:58N 45°34' W 122°44'0 0.0
2017-May-23 10:28N 45°34' W 122°44'0 0.0
2017-May-23 09:55N 45°34' W 122°44'0 0.0
2017-May-23 09:28N 45°34' W 122°44'0 0.0
2017-May-23 08:58N 45°34' W 122°44'0 0.0
2017-May-23 08:28N 45°34' W 122°44'0 0.0
2017-May-23 07:40N 45°34' W 122°44'0 0.0
2017-May-23 07:28N 45°34' W 122°44'0 0.0
2017-May-23 06:58N 45°34' W 122°44'0 0.0
2017-May-23 06:28N 45°34' W 122°44'0 0.0
2017-May-23 05:58N 45°34' W 122°44'0 0.0
2017-May-23 05:28N 45°34' W 122°44'0 0.0
2017-May-23 04:58N 45°34' W 122°44'0 0.0
2017-May-23 04:25N 45°34' W 122°44'0 0.0
2017-May-23 03:55N 45°34' W 122°44'0 0.0
2017-May-23 03:22N 45°34' W 122°44'0 0.0
2017-May-23 02:58N 45°34' W 122°44'0 0.0
2017-May-23 01:19N 45°34' W 122°44'0 0.0
2017-May-23 00:55N 45°34' W 122°44'0 0.0
2017-May-23 00:28N 45°34' W 122°44'0 0.0
2017-May-22 23:46N 45°34' W 122°44'0 0.0
2017-May-22 23:28N 45°34' W 122°44'0 0.0
2017-May-22 22:52N 45°34' W 122°44'0 0.0
2017-May-22 22:28N 45°34' W 122°44'0 0.0
2017-May-22 21:58N 45°34' W 122°44'0 0.0
2017-May-22 21:28N 45°34' W 122°44'0 0.0
2017-May-22 20:58N 45°34' W 122°44'0 0.0
2017-May-22 20:25N 45°34' W 122°44'0 0.0
2017-May-22 19:55N 45°34' W 122°44'0 0.0
2017-May-22 19:22N 45°34' W 122°44'0 0.0
2017-May-22 18:58N 45°34' W 122°44'0 0.0
2017-May-22 18:28N 45°34' W 122°44'0 0.0
2017-May-22 17:58N 45°34' W 122°44'0 0.0
2017-May-22 17:30N 45°34' W 122°44'0 0.0
2017-May-22 17:00N 45°34' W 122°44'0 0.0
2017-May-22 16:30N 45°34' W 122°44'0 0.0
2017-May-22 16:00N 45°34' W 122°44'0 0.0
2017-May-22 15:30N 45°34' W 122°44'0 0.0
2017-May-22 15:00N 45°34' W 122°44'0 0.0
2017-May-22 14:00N 45°34' W 122°44'0 0.0
2017-May-22 13:30N 45°34' W 122°44'0 0.0
2017-May-22 13:00N 45°34' W 122°44'0 0.9
2017-May-22 12:30N 45°34' W 122°45'3 5.6
2017-May-22 12:00N 45°37' W 122°47'3 6.5
2017-May-22 11:30N 45°40' W 122°46'4 8.4
2017-May-22 11:00N 45°44' W 122°46'5 9.1
2017-May-22 10:30N 45°48' W 122°48'4 8.6
2017-May-22 10:00N 45°53' W 122°48'5 9.0
2017-May-22 09:31N 45°57' W 122°48'4 8.5
2017-May-22 09:01N 46°01' W 122°51'4 7.3
2017-May-22 08:31N 46°04' W 122°53'3 6.8
2017-May-22 08:00N 46°06' W 122°57'4 7.5
2017-May-22 07:30N 46°08' W 123°02'5 9.3
2017-May-22 07:00N 46°11' W 123°07'5 9.6
2017-May-22 06:31N 46°10' W 123°14'5 9.9
2017-May-22 06:00N 46°09' W 123°21'4 8.7
2017-May-22 05:31N 46°11' W 123°26'510.1
2017-May-22 05:01N 46°16' W 123°28'611.2
2017-May-22 04:30N 46°15' W 123°36'611.2
2017-May-22 04:00N 46°14' W 123°44'510.9
2017-May-22 03:30N 46°12' W 123°51'4 7.7
2017-May-22 03:00N 46°12' W 123°56'612.0
2017-May-22 02:30N 46°15' W 124°04'611.1
2017-May-22 02:00N 46°12' W 124°10'510.9
2017-May-22 01:30N 46°10' W 124°18'611.6
2017-May-22 01:00N 46°11' W 124°26'611.2
2017-May-22 00:30N 46°13' W 124°33'612.8
2017-May-22 00:00N 46°18' W 124°39'510.4
2017-May-21 23:31N 46°22' W 124°44'4 7.1
2017-May-21 23:00N 46°25' W 124°48'713.3
2017-May-21 22:30N 46°29' W 124°55'714.4
2017-May-21 22:00N 46°35' W 125°02'714.5
2017-May-21 21:30N 46°40' W 125°09'714.2
2017-May-21 20:59N 46°45' W 125°17'714.1
2017-May-21 20:29N 46°50' W 125°24'713.8
2017-May-21 20:00N 46°55' W 125°31'713.1
2017-May-21 19:31N 47°01' W 125°32'714.0
2017-May-21 19:00N 47°08' W 125°32'714.2
2017-May-21 18:31N 47°16' W 125°32'714.4
2017-May-21 18:01N 47°23' W 125°32'714.1
2017-May-21 17:30N 47°30' W 125°32'714.0
2017-May-21 17:00N 47°37' W 125°32'713.8
2017-May-21 16:30N 47°44' W 125°32'714.0
2017-May-21 16:01N 47°51' W 125°32'1414.0
2017-May-21 15:02N 48°03' W 125°24'0 2.3
2017-May-21 14:58N 48°03' W 125°24'1013.7
2017-May-21 14:15N 48°12' W 125°17'1114.4
2017-May-21 13:30N 48°22' W 125°10'713.9
2017-May-21 13:00N 48°28' W 125°04'712.5
2017-May-21 12:28N 48°31' W 124°55'714.7
2017-May-21 12:01N 48°31' W 124°45'814.9
2017-May-21 11:30N 48°28' W 124°34'714.8
2017-May-21 11:00N 48°25' W 124°24'714.7
2017-May-21 10:30N 48°22' W 124°14'714.3
2017-May-21 10:00N 48°20' W 124°04'714.1
2017-May-21 09:30N 48°17' W 123°54'714.0
2017-May-21 09:00N 48°16' W 123°43'713.2
2017-May-21 08:30N 48°15' W 123°34'611.6
2017-May-21 08:00N 48°13' W 123°26'5 9.7
2017-May-21 07:30N 48°09' W 123°22'5 9.5
2017-May-21 07:00N 48°10' W 123°15'611.8
2017-May-21 06:30N 48°14' W 123°10'510.9
2017-May-21 06:00N 48°18' W 123°03'611.3
2017-May-21 05:30N 48°21' W 122°56'611.5
2017-May-21 05:00N 48°24' W 122°49'5 9.7
2017-May-21 04:30N 48°28' W 122°45'510.3
2017-May-21 04:00N 48°33' W 122°45'510.3
2017-May-21 03:30N 48°38' W 122°44'610.9
2017-May-21 03:00N 48°44' W 122°45'611.8
2017-May-21 02:30N 48°50' W 122°46'2 0.1
2017-May-19 12:35N 48°52' W 122°46'0 0.0
2017-May-19 12:14N 48°52' W 122°46'0 0.0
2017-May-18 21:41N 48°52' W 122°46'1 3.0
2017-May-18 21:30N 48°51' W 122°45'3 5.5
2017-May-18 21:00N 48°48' W 122°46'5 9.3
2017-May-18 20:30N 48°44' W 122°45'611.8
2017-May-18 20:00N 48°38' W 122°44'612.0
2017-May-18 19:31N 48°32' W 122°45'612.5
2017-May-18 19:01N 48°26' W 122°46'713.6
2017-May-18 18:30N 48°21' W 122°54'714.2
2017-May-18 18:00N 48°18' W 123°03'713.6
2017-May-18 17:30N 48°14' W 123°12'713.3
2017-May-18 17:00N 48°11' W 123°20'4 7.8
2017-May-18 16:30N 48°11' W 123°26'4 8.0
2017-May-18 16:01N 48°12' W 123°31'4 7.7
2017-May-18 15:30N 48°13' W 123°37'5 9.6
2017-May-18 15:00N 48°13' W 123°44'1312.9
2017-May-18 14:00N 48°16' W 124°03'713.2
2017-May-18 13:30N 48°18' W 124°12'713.1
2017-May-18 13:00N 48°21' W 124°21'612.8
2017-May-18 12:30N 48°24' W 124°30'612.6
2017-May-18 12:00N 48°27' W 124°39'612.7
2017-May-18 11:30N 48°28' W 124°48'713.4
2017-May-18 11:00N 48°29' W 124°58'612.8
2017-May-18 10:30N 48°24' W 125°04'713.7
2017-May-18 10:00N 48°18' W 125°09'713.8
2017-May-18 09:30N 48°12' W 125°14'814.0
2017-May-18 08:56N 48°05' W 125°20'7213.3
2017-May-18 03:32N 46°55' W 125°46'413.9
2017-May-18 03:13N 46°51' W 125°46'413.7
2017-May-18 02:57N 46°47' W 125°46'2912.0
2017-May-18 00:34N 46°18' W 125°45'114.5
2017-May-18 00:30N 46°18' W 125°45'1720.8
2017-May-17 23:43N 46°01' W 125°45'0 1.2
2017-May-17 23:21N 46°01' W 125°45'514.5
2017-May-17 23:00N 45°56' W 125°45'814.4
2017-May-17 22:28N 45°48' W 125°45'814.2
2017-May-17 21:55N 45°40' W 125°45'714.2
2017-May-17 21:28N 45°34' W 125°45'614.1
2017-May-17 21:00N 45°27' W 125°45'814.2
2017-May-17 20:28N 45°20' W 125°45'1114.0
2017-May-17 19:43N 45°09' W 125°45'1013.7
2017-May-17 19:01N 44°59' W 125°45'013.9
2017-May-17 19:00N 44°59' W 125°45'713.7
2017-May-17 18:30N 44°52' W 125°45'  

Dump ship's entire track history